Time;durP1;ratioP1;P1;durP2;ratioP2;P2;SDS_P1;SDS_P2;PMS_P1;PMS_P2;Temp;Humidity;BMP_temperature;BMP_pressure;BME280_temperature;BME280_humidity;BME280_pressure;Samples;Min_cycle;Max_cycle;Signal;HPM_P1;HPM_P2
2022/10/17 00:00:56;;;;;;;13.52;8.23;;;;;;;;;;5091059;28;20056;-81
2022/10/17 00:03:22;;;;;;;17.40;8.95;;;;;;;;;;5097277;27;20052;-81
2022/10/17 00:05:48;;;;;;;16.00;9.15;;;;;;;;;;5098298;27;20052;-81
2022/10/17 00:08:15;;;;;;;18.40;8.68;;;;;;;;;;5101610;28;20528;-81
2022/10/17 00:10:42;;;;;;;15.60;9.13;;;;;;;;;;5091905;27;20052;-81
2022/10/17 00:13:09;;;;;;;18.92;9.85;;;;;;;;;;5104059;27;20136;-81
2022/10/17 00:15:35;;;;;;;18.77;10.30;;;;;;;;;;5101512;27;20977;-81
2022/10/17 00:18:02;;;;;;;19.42;10.13;;;;;;;;;;5105321;27;20048;-81
2022/10/17 00:20:29;;;;;;;18.52;10.10;;;;;;;;;;5100912;28;20052;-81
2022/10/17 00:22:56;;;;;;;15.75;9.18;;;;;;;;;;5096815;27;20503;-82
2022/10/17 00:25:22;;;;;;;16.98;9.93;;;;;;;;;;5099896;27;20522;-80
2022/10/17 00:27:48;;;;;;;18.25;10.63;;;;;;;;;;5111903;27;20052;-81
2022/10/17 00:30:15;;;;;;;20.15;11.23;;;;;;;;;;5101377;27;20032;-81
2022/10/17 00:32:41;;;;;;;19.75;11.32;;;;;;;;;;5092777;28;20908;-82
2022/10/17 00:35:07;;;;;;;18.55;9.95;;;;;;;;;;5102337;27;20101;-81
2022/10/17 00:37:34;;;;;;;18.73;10.38;;;;;;;;;;5108012;28;20055;-81
2022/10/17 00:40:00;;;;;;;18.80;10.15;;;;;;;;;;5094289;27;20110;-81
2022/10/17 00:42:26;;;;;;;16.23;9.38;;;;;;;;;;5101271;27;20063;-81
2022/10/17 00:44:58;;;;;;;17.33;9.98;;;;;;;;;;5104175;27;20091;-81
2022/10/17 00:47:24;;;;;;;15.85;10.30;;;;;;;;;;5100172;27;20056;-81
2022/10/17 00:49:51;;;;;;;15.63;9.95;;;;;;;;;;5099250;27;20056;-81
2022/10/17 00:52:20;;;;;;;15.70;9.20;;;;;;;;;;5102227;27;20060;-82
2022/10/17 00:54:58;;;;;;;21.33;9.90;;;;;;;;;;5100767;28;20059;-81
2022/10/17 00:57:26;;;;;;;15.70;10.13;;;;;;;;;;5094902;27;20040;-81
2022/10/17 00:59:53;;;;;;;21.33;11.50;;;;;;;;;;5121809;27;20055;-81
2022/10/17 01:02:20;;;;;;;20.55;11.65;;;;;;;;;;5094954;27;20056;-81
2022/10/17 01:04:48;;;;;;;22.88;11.70;;;;;;;;;;5091694;28;20060;-82
2022/10/17 01:07:15;;;;;;;21.67;12.05;;;;;;;;;;5107769;28;20056;-82
2022/10/17 01:09:43;;;;;;;17.63;11.27;;;;;;;;;;5096910;27;20905;-82
2022/10/17 01:12:09;;;;;;;18.08;10.77;;;;;;;;;;5095110;27;20475;-81
2022/10/17 01:14:59;;;;;;;19.48;11.70;;;;;;;;;;5112649;27;20430;-82
2022/10/17 01:17:33;;;;;;;18.42;10.80;;;;;;;;;;5096605;28;20055;-81
2022/10/17 01:20:18;;;;;;;21.30;11.07;;;;;;;;;;5107202;27;20048;-82
2022/10/17 01:22:50;;;;;;;19.83;11.60;;;;;;;;;;5113315;27;20051;-82
2022/10/17 01:25:20;;;;;;;18.48;10.60;;;;;;;;;;5113026;27;20051;-81
2022/10/17 01:27:55;;;;;;;20.75;10.75;;;;;;;;;;5113351;27;20063;-82
2022/10/17 01:30:27;;;;;;;19.60;11.18;;;;;;;;;;5117051;27;20852;-81
2022/10/17 01:32:57;;;;;;;18.63;10.68;;;;;;;;;;5104574;28;20052;-82
2022/10/17 01:35:26;;;;;;;18.95;11.48;;;;;;;;;;5112196;27;20048;-81
2022/10/17 01:38:03;;;;;;;17.27;10.32;;;;;;;;;;5107631;27;20102;-82
2022/10/17 01:40:34;;;;;;;18.38;10.48;;;;;;;;;;5096774;27;20056;-81
2022/10/17 01:43:11;;;;;;;24.33;10.80;;;;;;;;;;5104734;28;20063;-81
2022/10/17 01:45:51;;;;;;;15.60;9.93;;;;;;;;;;5094801;28;20837;-81
2022/10/17 01:48:21;;;;;;;19.60;10.02;;;;;;;;;;5113099;28;20053;-81
2022/10/17 01:50:49;;;;;;;16.10;10.10;;;;;;;;;;5113170;27;20055;-82
2022/10/17 01:53:18;;;;;;;17.48;9.75;;;;;;;;;;5104291;27;20048;-82
2022/10/17 01:55:45;;;;;;;19.42;10.88;;;;;;;;;;5100655;28;20057;-82
2022/10/17 01:58:14;;;;;;;21.42;11.23;;;;;;;;;;5099862;28;20048;-81
2022/10/17 02:00:41;;;;;;;20.48;11.20;;;;;;;;;;5109196;27;20052;-81
2022/10/17 02:03:10;;;;;;;20.15;11.25;;;;;;;;;;5108347;27;20057;-81
2022/10/17 02:05:38;;;;;;;23.20;12.52;;;;;;;;;;5102010;27;20052;-81
2022/10/17 02:08:05;;;;;;;24.60;13.15;;;;;;;;;;5107402;27;20064;-81
2022/10/17 02:10:47;;;;;;;24.33;13.40;;;;;;;;;;5103079;27;20052;-81
2022/10/17 02:13:23;;;;;;;19.13;11.57;;;;;;;;;;5111333;28;20945;-81
2022/10/17 02:15:49;;;;;;;22.83;11.43;;;;;;;;;;5108158;27;20051;-82
2022/10/17 02:18:38;;;;;;;21.85;11.98;;;;;;;;;;5104211;27;20065;-82
2022/10/17 02:21:19;;;;;;;23.90;11.27;;;;;;;;;;5061232;28;20063;-81
2022/10/17 02:24:00;;;;;;;19.23;10.90;;;;;;;;;;5105430;27;20048;-81
2022/10/17 02:26:35;;;;;;;19.08;10.85;;;;;;;;;;5101744;28;20051;-81
2022/10/17 02:29:05;;;;;;;26.27;12.10;;;;;;;;;;5110577;27;20055;-82
2022/10/17 02:31:44;;;;;;;20.77;11.90;;;;;;;;;;5095534;27;20047;-82
2022/10/17 02:34:31;;;;;;;18.05;10.00;;;;;;;;;;5111277;27;20051;-82
2022/10/17 02:36:59;;;;;;;19.27;11.20;;;;;;;;;;5094985;27;20056;-82
2022/10/17 02:39:27;;;;;;;20.25;11.55;;;;;;;;;;5096942;27;20044;-81
2022/10/17 02:41:55;;;;;;;20.15;11.30;;;;;;;;;;5099592;27;21079;-81
2022/10/17 02:44:21;;;;;;;23.52;12.18;;;;;;;;;;5102764;28;20056;-82
2022/10/17 02:46:54;;;;;;;24.42;12.60;;;;;;;;;;5100285;28;20512;-81
2022/10/17 02:49:23;;;;;;;18.88;11.43;;;;;;;;;;5104297;27;20063;-82
2022/10/17 02:52:06;;;;;;;23.40;11.60;;;;;;;;;;5104120;27;20866;-82
2022/10/17 02:54:36;;;;;;;20.25;11.60;;;;;;;;;;5110712;27;20139;-81
2022/10/17 02:57:23;;;;;;;25.60;12.53;;;;;;;;;;5097052;28;20052;-81
2022/10/17 02:59:50;;;;;;;23.48;11.88;;;;;;;;;;5106482;27;20079;-82
2022/10/17 03:02:16;;;;;;;22.48;11.23;;;;;;;;;;5107263;27;20049;-82
2022/10/17 03:04:43;;;;;;;21.85;11.98;;;;;;;;;;5102010;27;20059;-82
2022/10/17 03:07:10;;;;;;;22.95;11.77;;;;;;;;;;5106732;27;20051;-82
2022/10/17 03:09:36;;;;;;;22.63;11.77;;;;;;;;;;5102553;27;20074;-82
2022/10/17 03:12:02;;;;;;;19.65;11.65;;;;;;;;;;5105476;27;20052;-81
2022/10/17 03:14:29;;;;;;;21.50;11.40;;;;;;;;;;5098414;27;20122;-82
2022/10/17 03:16:55;;;;;;;21.13;12.25;;;;;;;;;;5109834;27;20059;-82
2022/10/17 03:19:21;;;;;;;20.88;11.00;;;;;;;;;;5103140;27;20060;-82
2022/10/17 03:21:47;;;;;;;23.63;11.85;;;;;;;;;;5091341;28;20551;-82
2022/10/17 03:24:14;;;;;;;24.20;11.50;;;;;;;;;;5096198;28;20060;-82
2022/10/17 03:26:40;;;;;;;21.23;11.27;;;;;;;;;;5095101;27;20063;-82
2022/10/17 03:29:06;;;;;;;21.98;11.88;;;;;;;;;;5107607;27;20400;-82
2022/10/17 03:31:33;;;;;;;20.92;11.57;;;;;;;;;;5093160;28;20052;-82
2022/10/17 03:34:00;;;;;;;21.55;11.70;;;;;;;;;;5098411;27;20054;-82
2022/10/17 03:36:27;;;;;;;24.98;10.77;;;;;;;;;;5106965;27;20047;-82
2022/10/17 03:38:53;;;;;;;24.00;10.95;;;;;;;;;;5112521;27;20662;-82
2022/10/17 03:41:20;;;;;;;24.58;12.35;;;;;;;;;;5101674;28;20055;-82
2022/10/17 03:43:46;;;;;;;18.20;10.65;;;;;;;;;;5109303;27;20062;-82
2022/10/17 03:46:12;;;;;;;20.38;11.32;;;;;;;;;;5101935;27;20052;-81
2022/10/17 03:48:39;;;;;;;20.38;11.00;;;;;;;;;;5092912;27;20122;-82
2022/10/17 03:51:06;;;;;;;20.83;11.30;;;;;;;;;;5096620;28;20059;-82
2022/10/17 03:53:33;;;;;;;21.67;11.32;;;;;;;;;;5096485;27;20049;-82
2022/10/17 03:56:13;;;;;;;21.73;12.07;;;;;;;;;;5092950;28;20079;-81
2022/10/17 03:58:39;;;;;;;20.67;11.35;;;;;;;;;;5103219;28;20048;-81
2022/10/17 04:01:07;;;;;;;27.70;11.10;;;;;;;;;;5107908;27;20518;-81
2022/10/17 04:03:33;;;;;;;20.15;11.23;;;;;;;;;;5115004;27;20527;-81
2022/10/17 04:06:00;;;;;;;21.48;11.10;;;;;;;;;;5110819;28;20170;-81
2022/10/17 04:08:26;;;;;;;20.65;11.68;;;;;;;;;;5104782;28;20052;-82
2022/10/17 04:10:56;;;;;;;22.38;11.75;;;;;;;;;;5104461;28;20052;-82
2022/10/17 04:13:23;;;;;;;22.03;12.20;;;;;;;;;;5108321;27;20044;-82
2022/10/17 04:15:56;;;;;;;20.17;11.02;;;;;;;;;;5098559;28;20274;-82
2022/10/17 04:18:23;;;;;;;22.25;11.90;;;;;;;;;;5110519;27;20142;-81
2022/10/17 04:20:49;;;;;;;19.05;11.35;;;;;;;;;;5108744;28;20533;-82
2022/10/17 04:23:15;;;;;;;21.15;11.10;;;;;;;;;;5109528;27;20507;-82
2022/10/17 04:25:42;;;;;;;23.42;11.95;;;;;;;;;;5108915;27;20048;-81
2022/10/17 04:28:08;;;;;;;23.00;11.40;;;;;;;;;;5103307;27;20056;-82
2022/10/17 04:30:35;;;;;;;25.08;11.70;;;;;;;;;;5112839;27;20107;-82
2022/10/17 04:33:01;;;;;;;21.30;11.15;;;;;;;;;;5107239;27;20052;-82
2022/10/17 04:35:27;;;;;;;19.08;10.93;;;;;;;;;;5106648;27;20066;-82
2022/10/17 04:37:54;;;;;;;21.48;11.95;;;;;;;;;;5105980;27;20085;-82
2022/10/17 04:40:20;;;;;;;20.63;10.65;;;;;;;;;;5102176;27;20075;-82
2022/10/17 04:42:46;;;;;;;22.63;12.25;;;;;;;;;;5108486;27;20063;-82
2022/10/17 04:45:13;;;;;;;20.63;12.23;;;;;;;;;;5101015;27;20082;-82
2022/10/17 04:47:39;;;;;;;24.17;11.52;;;;;;;;;;5111118;27;20060;-82
2022/10/17 04:50:05;;;;;;;23.05;12.00;;;;;;;;;;5100040;28;20060;-82
2022/10/17 04:52:34;;;;;;;23.45;11.50;;;;;;;;;;5114754;27;20062;-82
2022/10/17 04:55:00;;;;;;;19.92;10.63;;;;;;;;;;5106248;28;20064;-82
2022/10/17 04:57:26;;;;;;;23.20;11.57;;;;;;;;;;5109060;27;20510;-82
2022/10/17 04:59:52;;;;;;;20.33;11.43;;;;;;;;;;5094895;28;20044;-82
2022/10/17 05:02:19;;;;;;;21.35;12.25;;;;;;;;;;5105928;27;20063;-82
2022/10/17 05:04:45;;;;;;;21.38;10.30;;;;;;;;;;5102265;27;20082;-82
2022/10/17 05:07:11;;;;;;;20.92;11.30;;;;;;;;;;5102478;28;20064;-82
2022/10/17 05:09:40;;;;;;;19.13;11.18;;;;;;;;;;5111917;28;20502;-81
2022/10/17 05:12:09;;;;;;;18.00;10.68;;;;;;;;;;5105155;27;20056;-82
2022/10/17 05:14:36;;;;;;;22.88;11.52;;;;;;;;;;5109379;27;20048;-82
2022/10/17 05:17:02;;;;;;;21.95;11.30;;;;;;;;;;5104367;28;20530;-81
2022/10/17 05:19:28;;;;;;;21.15;10.90;;;;;;;;;;5097873;27;20120;-81
2022/10/17 05:21:55;;;;;;;20.08;10.90;;;;;;;;;;5101936;28;20053;-83
2022/10/17 05:24:21;;;;;;;16.60;10.57;;;;;;;;;;5107552;28;20657;-83
2022/10/17 05:26:49;;;;;;;22.38;11.05;;;;;;;;;;5101744;27;20052;-81
2022/10/17 05:29:15;;;;;;;21.52;11.15;;;;;;;;;;5108262;28;20053;-84
2022/10/17 05:31:41;;;;;;;20.83;10.02;;;;;;;;;;5103585;28;20057;-83
2022/10/17 05:34:07;;;;;;;21.50;11.25;;;;;;;;;;5109779;27;20051;-83
2022/10/17 05:36:39;;;;;;;19.38;10.80;;;;;;;;;;5107932;28;20822;-82
2022/10/17 05:39:05;;;;;;;18.80;10.75;;;;;;;;;;5103510;28;20053;-83
2022/10/17 05:41:31;;;;;;;16.25;10.48;;;;;;;;;;5099360;27;20059;-83
2022/10/17 05:43:57;;;;;;;20.63;10.93;;;;;;;;;;5110404;28;20059;-83
2022/10/17 05:46:29;;;;;;;18.40;10.93;;;;;;;;;;5106855;27;20118;-83
2022/10/17 05:48:56;;;;;;;18.88;10.27;;;;;;;;;;5112284;28;20055;-83
2022/10/17 05:51:22;;;;;;;23.00;11.40;;;;;;;;;;5108603;28;20063;-82
2022/10/17 05:53:48;;;;;;;18.85;10.38;;;;;;;;;;5108785;28;20052;-80
2022/10/17 05:56:15;;;;;;;17.35;10.23;;;;;;;;;;5108848;27;21248;-80
2022/10/17 05:58:42;;;;;;;18.73;10.48;;;;;;;;;;5098601;27;20061;-84
2022/10/17 06:01:19;;;;;;;19.13;10.30;;;;;;;;;;5097302;27;20052;-81
2022/10/17 06:03:45;;;;;;;21.30;9.93;;;;;;;;;;5107186;28;20124;-84
2022/10/17 06:06:12;;;;;;;23.27;10.50;;;;;;;;;;5094883;28;20056;-81
2022/10/17 06:08:38;;;;;;;18.80;10.57;;;;;;;;;;5097926;27;20049;-81
2022/10/17 06:11:05;;;;;;;18.75;10.85;;;;;;;;;;5096599;28;20366;-81
2022/10/17 06:13:35;;;;;;;21.55;11.98;;;;;;;;;;5094560;28;20059;-81
2022/10/17 06:16:02;;;;;;;20.83;10.75;;;;;;;;;;5107812;28;20083;-80
2022/10/17 06:18:28;;;;;;;22.00;10.85;;;;;;;;;;5099301;28;20052;-80
2022/10/17 06:21:00;;;;;;;19.73;10.35;;;;;;;;;;5103021;27;20056;-83
2022/10/17 06:23:26;;;;;;;24.52;11.45;;;;;;;;;;5096032;28;20075;-83
2022/10/17 06:25:56;;;;;;;18.17;9.93;;;;;;;;;;5100688;28;20044;-81
2022/10/17 06:28:22;;;;;;;19.10;9.65;;;;;;;;;;5105482;28;20063;-81
2022/10/17 06:30:48;;;;;;;18.35;10.40;;;;;;;;;;5100715;27;20091;-84
2022/10/17 06:33:15;;;;;;;21.42;10.90;;;;;;;;;;5110203;27;20059;-84
2022/10/17 06:35:41;;;;;;;21.80;10.45;;;;;;;;;;5113679;27;20073;-80
2022/10/17 06:38:08;;;;;;;18.27;10.30;;;;;;;;;;5110076;27;20067;-81
2022/10/17 06:40:35;;;;;;;21.13;10.25;;;;;;;;;;5112723;27;20051;-80
2022/10/17 06:43:01;;;;;;;17.00;9.48;;;;;;;;;;5112074;27;20047;-81
2022/10/17 06:45:27;;;;;;;21.08;10.75;;;;;;;;;;5105004;27;20056;-81
2022/10/17 06:47:54;;;;;;;21.05;10.48;;;;;;;;;;5102682;27;20052;-84
2022/10/17 06:50:20;;;;;;;17.13;10.40;;;;;;;;;;5109217;28;20076;-83
2022/10/17 06:52:49;;;;;;;19.02;10.25;;;;;;;;;;5111636;28;20060;-82
2022/10/17 06:55:15;;;;;;;19.48;11.23;;;;;;;;;;5115950;27;20048;-81
2022/10/17 06:57:48;;;;;;;15.98;9.88;;;;;;;;;;5103623;27;20040;-81
2022/10/17 07:00:14;;;;;;;16.63;10.00;;;;;;;;;;5107928;27;20063;-81
2022/10/17 07:02:41;;;;;;;20.85;10.43;;;;;;;;;;5122581;27;20106;-84
2022/10/17 07:05:08;;;;;;;16.67;9.85;;;;;;;;;;5111203;27;20059;-81
2022/10/17 07:07:34;;;;;;;17.45;10.10;;;;;;;;;;5099090;27;20060;-82
2022/10/17 07:10:07;;;;;;;18.70;10.60;;;;;;;;;;5107703;27;20546;-81
2022/10/17 07:12:34;;;;;;;17.98;9.70;;;;;;;;;;5112916;27;20055;-81
2022/10/17 07:15:00;;;;;;;16.02;9.70;;;;;;;;;;5108445;27;20052;-81
2022/10/17 07:17:26;;;;;;;16.90;9.30;;;;;;;;;;5108973;28;20140;-81
2022/10/17 07:19:53;;;;;;;17.65;9.68;;;;;;;;;;5103435;27;20129;-81
2022/10/17 07:22:19;;;;;;;17.52;10.20;;;;;;;;;;5103378;27;20056;-84
2022/10/17 07:24:45;;;;;;;19.65;9.93;;;;;;;;;;5096428;27;20040;-83
2022/10/17 07:27:13;;;;;;;19.00;10.00;;;;;;;;;;5095929;28;20132;-81
2022/10/17 07:29:39;;;;;;;14.75;9.68;;;;;;;;;;5094181;27;20048;-82
2022/10/17 07:32:07;;;;;;;21.30;9.13;;;;;;;;;;5110447;27;20028;-81
2022/10/17 07:34:34;;;;;;;16.13;9.43;;;;;;;;;;5102910;27;20052;-81
2022/10/17 07:37:01;;;;;;;20.10;9.52;;;;;;;;;;5091416;27;20530;-83
2022/10/17 07:39:27;;;;;;;15.52;9.30;;;;;;;;;;5105109;27;20032;-81
2022/10/17 07:41:57;;;;;;;15.90;9.80;;;;;;;;;;5099832;27;20059;-81
2022/10/17 07:44:26;;;;;;;19.55;9.20;;;;;;;;;;5110573;27;20047;-82
2022/10/17 07:46:55;;;;;;;19.60;9.68;;;;;;;;;;5096453;27;21022;-83
2022/10/17 07:49:21;;;;;;;21.40;9.15;;;;;;;;;;5107234;27;20044;-83
2022/10/17 07:51:48;;;;;;;18.60;10.15;;;;;;;;;;5104824;27;20074;-82
2022/10/17 07:54:15;;;;;;;19.10;10.30;;;;;;;;;;5100399;27;20053;-82
2022/10/17 07:56:49;;;;;;;16.40;9.70;;;;;;;;;;5105458;27;20580;-82
2022/10/17 07:59:18;;;;;;;19.35;10.65;;;;;;;;;;5102871;27;20048;-84
2022/10/17 08:01:45;;;;;;;20.08;9.70;;;;;;;;;;5109981;27;20055;-83
2022/10/17 08:04:11;;;;;;;15.15;9.57;;;;;;;;;;5096194;27;20082;-83
2022/10/17 08:06:38;;;;;;;18.00;9.77;;;;;;;;;;5099809;28;20036;-85
2022/10/17 08:09:04;;;;;;;19.90;9.68;;;;;;;;;;5106065;27;20511;-81
2022/10/17 08:11:30;;;;;;;20.38;10.07;;;;;;;;;;5118410;27;20039;-83
2022/10/17 08:13:59;;;;;;;17.95;9.82;;;;;;;;;;5106136;27;20078;-80
2022/10/17 08:16:25;;;;;;;21.08;10.55;;;;;;;;;;5098706;27;20507;-84
2022/10/17 08:18:54;;;;;;;21.00;10.07;;;;;;;;;;5109484;27;20056;-84
2022/10/17 08:21:21;;;;;;;25.60;10.55;;;;;;;;;;5110831;27;20057;-82
2022/10/17 08:23:47;;;;;;;25.13;10.55;;;;;;;;;;5110235;27;20063;-82
2022/10/17 08:26:16;;;;;;;20.33;10.88;;;;;;;;;;5102002;28;20915;-81
2022/10/17 08:28:42;;;;;;;21.02;11.18;;;;;;;;;;5096703;28;20054;-81
2022/10/17 08:31:09;;;;;;;18.77;11.10;;;;;;;;;;5101021;28;20931;-82
2022/10/17 08:33:36;;;;;;;21.50;11.75;;;;;;;;;;5101148;27;20082;-82
2022/10/17 08:36:03;;;;;;;21.70;11.02;;;;;;;;;;5101299;27;20056;-82
2022/10/17 08:38:30;;;;;;;22.90;11.50;;;;;;;;;;5103510;27;20536;-81
2022/10/17 08:41:06;;;;;;;25.02;11.68;;;;;;;;;;5108324;27;20063;-81
2022/10/17 08:43:53;;;;;;;23.60;11.70;;;;;;;;;;5104037;27;20049;-84
2022/10/17 08:46:20;;;;;;;26.90;11.65;;;;;;;;;;5097382;27;20051;-83
2022/10/17 08:48:48;;;;;;;21.85;11.88;;;;;;;;;;5092448;28;20052;-81
2022/10/17 08:51:17;;;;;;;25.98;12.98;;;;;;;;;;5095235;28;20064;-81
2022/10/17 08:54:05;;;;;;;27.27;12.23;;;;;;;;;;5098800;28;20063;-82
2022/10/17 08:56:45;;;;;;;23.35;10.75;;;;;;;;;;5102718;28;20052;-80
2022/10/17 08:59:28;;;;;;;23.00;11.60;;;;;;;;;;5107298;27;20117;-82
2022/10/17 09:01:54;;;;;;;24.20;11.65;;;;;;;;;;5104924;27;20059;-79
2022/10/17 09:04:23;;;;;;;28.63;12.05;;;;;;;;;;5103393;27;20044;-78
2022/10/17 09:07:00;;;;;;;27.15;12.30;;;;;;;;;;5097692;27;20051;-81
2022/10/17 09:09:42;;;;;;;24.00;12.25;;;;;;;;;;5113088;27;20055;-82
2022/10/17 09:12:18;;;;;;;23.77;11.98;;;;;;;;;;5106060;27;20098;-77
2022/10/17 09:15:07;;;;;;;31.42;13.25;;;;;;;;;;5097610;27;20049;-82
2022/10/17 09:17:42;;;;;;;31.65;13.32;;;;;;;;;;5115736;27;20530;-82
2022/10/17 09:20:09;;;;;;;28.02;13.35;;;;;;;;;;5098257;27;20053;-83
2022/10/17 09:22:41;;;;;;;28.35;12.55;;;;;;;;;;5122782;27;20056;-82
2022/10/17 09:25:12;;;;;;;25.45;12.93;;;;;;;;;;5108451;27;20133;-82
2022/10/17 09:27:57;;;;;;;26.42;12.52;;;;;;;;;;5100037;27;20048;-82
2022/10/17 09:30:33;;;;;;;23.55;12.82;;;;;;;;;;5118269;27;20059;-82
2022/10/17 09:33:16;;;;;;;30.23;13.02;;;;;;;;;;5100577;27;20101;-82
2022/10/17 09:36:02;;;;;;;27.98;12.32;;;;;;;;;;5093843;27;20196;-82
2022/10/17 09:38:33;;;;;;;28.65;13.05;;;;;;;;;;5116622;27;20975;-79
2022/10/17 09:41:00;;;;;;;30.77;12.90;;;;;;;;;;5100869;27;20059;-80
2022/10/17 09:43:27;;;;;;;28.33;13.02;;;;;;;;;;5108311;27;20102;-80
2022/10/17 09:46:17;;;;;;;30.50;12.65;;;;;;;;;;5095202;27;20864;-80
2022/10/17 09:48:52;;;;;;;25.38;12.75;;;;;;;;;;5092145;27;20798;-80
2022/10/17 09:51:19;;;;;;;28.85;12.73;;;;;;;;;;5094744;27;20102;-80
2022/10/17 09:53:54;;;;;;;30.67;13.60;;;;;;;;;;5104087;27;20055;-81
2022/10/17 09:56:20;;;;;;;24.85;12.25;;;;;;;;;;5104548;27;20056;-82
2022/10/17 09:58:48;;;;;;;25.95;12.43;;;;;;;;;;5104958;27;20048;-83
2022/10/17 10:01:18;;;;;;;30.73;13.32;;;;;;;;;;5109388;27;20040;-82
2022/10/17 10:04:07;;;;;;;23.52;12.70;;;;;;;;;;5112442;27;20037;-82
2022/10/17 10:06:33;;;;;;;26.80;12.90;;;;;;;;;;5122734;27;20056;-82
2022/10/17 10:09:04;;;;;;;26.50;12.70;;;;;;;;;;5111051;27;20052;-82
2022/10/17 10:11:44;;;;;;;23.38;12.65;;;;;;;;;;5114501;27;20051;-82
2022/10/17 10:14:12;;;;;;;22.70;12.55;;;;;;;;;;5107579;27;20060;-82
2022/10/17 10:16:42;;;;;;;28.65;11.80;;;;;;;;;;5119889;27;20591;-81
2022/10/17 10:19:28;;;;;;;20.92;11.82;;;;;;;;;;5117259;27;20961;-82
2022/10/17 10:22:02;;;;;;;21.58;11.70;;;;;;;;;;5110196;27;20061;-81
2022/10/17 10:24:29;;;;;;;23.95;12.02;;;;;;;;;;5109947;27;20036;-81
2022/10/17 10:26:58;;;;;;;20.90;11.70;;;;;;;;;;5104416;27;20052;-81
2022/10/17 10:29:33;;;;;;;17.88;10.43;;;;;;;;;;5116442;27;20056;-82
2022/10/17 10:32:18;;;;;;;19.13;11.32;;;;;;;;;;5105064;28;20103;-82
2022/10/17 10:34:49;;;;;;;22.55;10.73;;;;;;;;;;5119515;27;20106;-81
2022/10/17 10:37:17;;;;;;;19.65;10.43;;;;;;;;;;5113580;28;20486;-81
2022/10/17 10:40:04;;;;;;;19.60;10.85;;;;;;;;;;5105579;27;20052;-81
2022/10/17 10:42:32;;;;;;;16.92;9.45;;;;;;;;;;5103909;28;20105;-81
2022/10/17 10:45:18;;;;;;;19.33;10.48;;;;;;;;;;5100953;27;20044;-81
2022/10/17 10:48:17;;;;;;;19.27;9.80;;;;;;;;;;5106587;28;20056;-81
2022/10/17 10:50:56;;;;;;;21.05;10.57;;;;;;;;;;5112347;27;20101;-81
2022/10/17 10:53:35;;;;;;;16.45;10.07;;;;;;;;;;5099858;27;20052;-80
2022/10/17 10:56:05;;;;;;;20.27;10.77;;;;;;;;;;5106291;28;20044;-80
2022/10/17 10:58:36;;;;;;;19.75;10.65;;;;;;;;;;5113053;28;20044;-80
2022/10/17 11:01:14;;;;;;;18.90;11.18;;;;;;;;;;5110352;27;20028;-80
2022/10/17 11:03:45;;;;;;;15.85;9.57;;;;;;;;;;5118069;27;20457;-80
2022/10/17 11:06:26;;;;;;;17.83;10.07;;;;;;;;;;5106295;27;20052;-81
2022/10/17 11:09:09;;;;;;;18.45;10.40;;;;;;;;;;5098185;27;20056;-81
2022/10/17 11:11:51;;;;;;;18.83;9.98;;;;;;;;;;5117601;27;20044;-81
2022/10/17 11:14:28;;;;;;;18.90;9.27;;;;;;;;;;5111331;27;20047;-82
2022/10/17 11:17:13;;;;;;;16.70;9.27;;;;;;;;;;5103567;27;20068;-82
2022/10/17 11:19:51;;;;;;;14.77;9.38;;;;;;;;;;5107755;27;20040;-82
2022/10/17 11:22:38;;;;;;;15.35;8.73;;;;;;;;;;5105933;27;20059;-82
2022/10/17 11:25:11;;;;;;;13.73;8.57;;;;;;;;;;5111374;27;20533;-81
2022/10/17 11:27:37;;;;;;;17.27;9.07;;;;;;;;;;5123561;27;20059;-82
2022/10/17 11:30:04;;;;;;;15.40;7.63;;;;;;;;;;5112451;27;20115;-82
2022/10/17 11:32:36;;;;;;;14.27;7.88;;;;;;;;;;5097027;27;20057;-82
2022/10/17 11:35:12;;;;;;;16.05;9.00;;;;;;;;;;5096795;28;20052;-82
2022/10/17 11:37:40;;;;;;;12.70;8.05;;;;;;;;;;5102265;27;20048;-82
2022/10/17 11:40:16;;;;;;;14.75;8.70;;;;;;;;;;5105507;28;20055;-81
2022/10/17 11:42:52;;;;;;;15.15;8.00;;;;;;;;;;5096364;28;20059;-81
2022/10/17 11:45:21;;;;;;;12.98;7.80;;;;;;;;;;5107436;27;20048;-81
2022/10/17 11:47:59;;;;;;;13.20;7.60;;;;;;;;;;5110216;27;20054;-80
2022/10/17 11:50:30;;;;;;;13.50;8.40;;;;;;;;;;5100977;27;20109;-80
2022/10/17 11:53:19;;;;;;;12.23;7.47;;;;;;;;;;5107250;27;20063;-81
2022/10/17 11:55:46;;;;;;;14.82;7.30;;;;;;;;;;5103117;27;20525;-80
2022/10/17 11:58:23;;;;;;;11.73;7.53;;;;;;;;;;5108521;27;20056;-80
2022/10/17 12:01:08;;;;;;;15.13;7.97;;;;;;;;;;5101296;28;20550;-80
2022/10/17 12:03:49;;;;;;;12.23;7.43;;;;;;;;;;5107508;27;20053;-80
2022/10/17 12:06:19;;;;;;;14.35;8.05;;;;;;;;;;5105495;28;20052;-80
2022/10/17 12:08:54;;;;;;;11.43;7.70;;;;;;;;;;5099085;28;20037;-80
2022/10/17 12:11:24;;;;;;;13.10;7.32;;;;;;;;;;5092733;27;20048;-80
2022/10/17 12:13:56;;;;;;;10.95;7.43;;;;;;;;;;5102359;27;20113;-80
2022/10/17 12:16:23;;;;;;;13.55;7.25;;;;;;;;;;5104239;27;20090;-80
2022/10/17 12:19:09;;;;;;;10.38;6.95;;;;;;;;;;5107934;27;20048;-80
2022/10/17 12:21:55;;;;;;;10.57;7.03;;;;;;;;;;5097843;28;20048;-80
2022/10/17 12:24:27;;;;;;;12.75;7.40;;;;;;;;;;5104781;28;20051;-80
2022/10/17 12:26:53;;;;;;;12.95;7.45;;;;;;;;;;5098915;28;20048;-80
2022/10/17 12:29:27;;;;;;;13.00;7.53;;;;;;;;;;5097414;27;20075;-80
2022/10/17 12:31:53;;;;;;;13.52;6.63;;;;;;;;;;5103245;27;20040;-80
2022/10/17 12:34:21;;;;;;;12.57;7.07;;;;;;;;;;5105173;27;20559;-80
2022/10/17 12:36:47;;;;;;;12.90;6.85;;;;;;;;;;5114227;27;20058;-80
2022/10/17 12:39:14;;;;;;;14.75;7.40;;;;;;;;;;5098030;27;20916;-80
2022/10/17 12:41:42;;;;;;;12.80;7.47;;;;;;;;;;5107732;27;20056;-80
2022/10/17 12:44:14;;;;;;;10.27;7.10;;;;;;;;;;5109041;28;20857;-80
2022/10/17 12:46:43;;;;;;;14.57;7.60;;;;;;;;;;5106410;27;20088;-80
2022/10/17 12:49:18;;;;;;;13.43;7.85;;;;;;;;;;5096896;28;20055;-80
2022/10/17 12:52:03;;;;;;;12.48;7.60;;;;;;;;;;5106237;27;20059;-80
2022/10/17 12:54:30;;;;;;;12.07;7.75;;;;;;;;;;5099769;28;20065;-80
2022/10/17 12:57:22;;;;;;;12.68;7.68;;;;;;;;;;5102172;28;20131;-80
2022/10/17 12:59:48;;;;;;;12.13;7.65;;;;;;;;;;5095560;27;20110;-80
2022/10/17 13:02:18;;;;;;;17.10;8.50;;;;;;;;;;5099711;27;20055;-80
2022/10/17 13:04:45;;;;;;;14.13;8.35;;;;;;;;;;5105276;27;20067;-80
2022/10/17 13:07:19;;;;;;;11.77;8.40;;;;;;;;;;5110180;27;20056;-80
2022/10/17 13:09:46;;;;;;;14.65;8.65;;;;;;;;;;5107446;27;20037;-80
2022/10/17 13:12:15;;;;;;;14.20;8.48;;;;;;;;;;5111230;27;20041;-81
2022/10/17 13:14:42;;;;;;;12.88;9.00;;;;;;;;;;5103637;27;20048;-80
2022/10/17 13:17:20;;;;;;;14.77;8.93;;;;;;;;;;5103997;28;20059;-80
2022/10/17 13:19:46;;;;;;;13.80;8.43;;;;;;;;;;5105967;27;20056;-80
2022/10/17 13:22:26;;;;;;;12.02;8.35;;;;;;;;;;5099782;27;20057;-81
2022/10/17 13:25:06;;;;;;;15.00;8.98;;;;;;;;;;5105956;27;20139;-80
2022/10/17 13:27:33;;;;;;;12.20;8.25;;;;;;;;;;5105200;28;20114;-80
2022/10/17 13:30:00;;;;;;;16.10;9.32;;;;;;;;;;5104722;27;20056;-81
2022/10/17 13:32:34;;;;;;;15.25;8.77;;;;;;;;;;5099143;27;20086;-81
2022/10/17 13:35:05;;;;;;;12.50;8.73;;;;;;;;;;5103477;27;20052;-80
2022/10/17 13:37:32;;;;;;;16.00;9.00;;;;;;;;;;5112167;27;20056;-80
2022/10/17 13:39:59;;;;;;;13.60;8.60;;;;;;;;;;5110694;27;20055;-79
2022/10/17 13:42:43;;;;;;;12.90;8.43;;;;;;;;;;5108259;28;20056;-80
2022/10/17 13:45:16;;;;;;;13.73;8.52;;;;;;;;;;5102173;27;20085;-80
2022/10/17 13:47:42;;;;;;;13.55;8.10;;;;;;;;;;5105025;27;20481;-80
2022/10/17 13:50:18;;;;;;;11.43;7.63;;;;;;;;;;5103093;27;20089;-80
2022/10/17 13:53:24;;;;;;;12.73;8.10;;;;;;;;;;5108593;27;20052;-80
2022/10/17 13:55:59;;;;;;;12.40;7.10;;;;;;;;;;5094673;28;20062;-80
2022/10/17 13:58:47;;;;;;;11.20;7.03;;;;;;;;;;5109153;27;20052;-80
2022/10/17 14:01:14;;;;;;;11.98;7.40;;;;;;;;;;5102853;27;20052;-80
2022/10/17 14:03:41;;;;;;;13.13;8.10;;;;;;;;;;5104202;28;20157;-80
2022/10/17 14:06:15;;;;;;;12.77;9.02;;;;;;;;;;5103746;27;20116;-80
2022/10/17 14:08:47;;;;;;;15.43;11.70;;;;;;;;;;5109615;28;20532;-80
2022/10/17 14:11:16;;;;;;;12.75;8.73;;;;;;;;;;5103006;28;20064;-81
2022/10/17 14:13:47;;;;;;;13.13;9.25;;;;;;;;;;5113568;27;20060;-80
2022/10/17 14:16:13;;;;;;;14.20;8.70;;;;;;;;;;5102911;28;20063;-80
2022/10/17 14:18:43;;;;;;;11.85;8.00;;;;;;;;;;5108549;28;20053;-80
2022/10/17 14:21:09;;;;;;;14.18;9.07;;;;;;;;;;5093479;28;20041;-79
2022/10/17 14:24:25;;;;;;;13.30;8.55;;;;;;;;;;5111176;28;20060;-80
2022/10/17 14:26:52;;;;;;;14.85;9.48;;;;;;;;;;5126884;27;20089;-80
2022/10/17 14:29:26;;;;;;;13.13;8.05;;;;;;;;;;5109021;28;20078;-81
2022/10/17 14:31:57;;;;;;;10.82;8.07;;;;;;;;;;5101863;28;20056;-80
2022/10/17 14:34:26;;;;;;;13.52;9.02;;;;;;;;;;5102483;27;20055;-81
2022/10/17 14:36:53;;;;;;;11.27;7.75;;;;;;;;;;5106331;27;20056;-81
2022/10/17 14:39:21;;;;;;;13.30;7.07;;;;;;;;;;5101491;28;20056;-81
2022/10/17 14:41:48;;;;;;;9.68;7.13;;;;;;;;;;5112736;28;20056;-81